createdAt,value
2022-12-11T00:01:38.385Z,11.93
2022-12-11T00:04:06.782Z,8.52
2022-12-11T00:06:40.069Z,11.02
2022-12-11T00:09:12.876Z,5.88
2022-12-11T00:11:50.806Z,9.23
2022-12-11T00:14:47.613Z,8.63
2022-12-11T00:17:24.279Z,8.05
2022-12-11T00:19:52.451Z,9.75
2022-12-11T00:22:22.512Z,7.15
2022-12-11T00:25:23.689Z,10.38
2022-12-11T00:36:49.255Z,6.50
2022-12-11T00:44:00.887Z,11.13
2022-12-11T00:51:01.866Z,7.95
2022-12-11T00:58:04.502Z,8.40
2022-12-11T01:05:16.269Z,7.60
2022-12-11T01:12:17.989Z,7.20
2022-12-11T01:19:30.206Z,7.07
2022-12-11T01:26:31.950Z,5.65
2022-12-11T01:38:37.364Z,5.05
2022-12-11T01:45:45.036Z,7.00
2022-12-11T01:52:50.437Z,7.38
2022-12-11T02:00:04.019Z,4.60
2022-12-11T06:55:24.034Z,6.45
2022-12-11T07:25:31.596Z,4.15
2022-12-11T07:32:45.159Z,5.32
2022-12-11T07:39:52.774Z,5.65
2022-12-11T07:42:22.498Z,5.05
2022-12-11T07:44:50.543Z,4.82
2022-12-11T07:47:18.671Z,2.80
2022-12-11T07:49:46.730Z,3.25
2022-12-11T07:52:15.369Z,4.22
2022-12-11T07:54:44.431Z,4.13
2022-12-11T07:57:14.823Z,3.10
2022-12-11T07:59:44.397Z,2.63
2022-12-11T08:02:12.861Z,3.25
2022-12-11T08:04:41.113Z,3.80
2022-12-11T08:07:09.208Z,3.83
2022-12-11T08:09:37.335Z,3.75
2022-12-11T08:12:05.766Z,2.95
2022-12-11T08:14:33.927Z,3.22
2022-12-11T08:17:03.570Z,2.55
2022-12-11T08:19:31.743Z,5.05
2022-12-11T08:21:59.816Z,2.40
2022-12-11T08:24:27.880Z,2.47
2022-12-11T08:26:55.980Z,3.60
2022-12-11T08:29:24.070Z,2.83
2022-12-11T08:31:52.141Z,3.30
2022-12-11T08:34:21.509Z,3.20
2022-12-11T08:36:49.620Z,3.08
2022-12-11T08:39:17.679Z,3.45
2022-12-11T08:41:45.817Z,3.70
2022-12-11T08:44:16.611Z,2.45
2022-12-11T08:46:45.779Z,3.63
2022-12-11T08:49:13.981Z,2.58
2022-12-11T08:51:43.810Z,3.42
2022-12-11T08:54:12.168Z,2.67
2022-12-11T08:56:40.365Z,2.15
2022-12-11T08:59:08.520Z,2.92
2022-12-11T09:01:38.858Z,3.13
2022-12-11T09:04:06.991Z,3.30
2022-12-11T09:06:35.428Z,3.40
2022-12-11T09:09:06.650Z,4.85
2022-12-11T09:11:37.001Z,3.08
2022-12-11T09:14:07.843Z,3.35
2022-12-11T09:16:40.886Z,4.75
2022-12-11T09:19:14.435Z,4.10
2022-12-11T09:21:44.367Z,4.90
2022-12-11T09:24:15.214Z,4.32
2022-12-11T09:26:45.566Z,4.88
2022-12-11T09:29:14.075Z,4.30
2022-12-11T09:31:42.245Z,4.75
2022-12-11T09:34:13.156Z,4.68
2022-12-11T09:36:42.477Z,4.35
2022-12-11T09:39:13.700Z,3.22
2022-12-11T09:41:49.619Z,3.85
2022-12-11T09:44:23.066Z,4.97
2022-12-11T09:46:52.786Z,5.13
2022-12-11T09:49:29.861Z,4.50
2022-12-11T09:52:13.571Z,3.22
2022-12-11T09:54:50.368Z,2.65
2022-12-11T09:57:29.746Z,3.92
2022-12-11T10:00:16.469Z,3.53
2022-12-11T10:03:08.878Z,4.28
2022-12-11T10:05:46.451Z,4.60
2022-12-11T10:08:25.011Z,4.65
2022-12-11T10:11:03.684Z,2.33
2022-12-11T10:13:42.145Z,4.15
2022-12-11T10:16:25.442Z,5.70
2022-12-11T10:18:54.389Z,4.97
2022-12-11T10:21:22.721Z,5.07
2022-12-11T10:23:55.659Z,3.42
2022-12-11T10:26:25.880Z,3.25
2022-12-11T10:28:54.388Z,4.70
2022-12-11T10:31:34.321Z,4.25
2022-12-11T10:34:04.279Z,2.60
2022-12-11T10:36:36.822Z,5.28
2022-12-11T10:39:13.961Z,4.50
2022-12-11T10:41:44.965Z,5.35
2022-12-11T10:44:18.546Z,3.45
2022-12-11T10:46:47.517Z,4.25
2022-12-11T10:49:24.263Z,4.97
2022-12-11T10:51:53.902Z,4.38
2022-12-11T10:54:32.335Z,4.50
2022-12-11T10:57:03.330Z,4.65
2022-12-11T10:59:37.107Z,3.42
2022-12-11T11:02:08.440Z,3.60
2022-12-11T11:04:39.276Z,4.07
2022-12-11T11:07:14.457Z,4.28
2022-12-11T11:09:44.626Z,3.35
2022-12-11T11:12:26.362Z,4.30
2022-12-11T11:15:01.807Z,4.68
2022-12-11T11:17:35.180Z,4.65
2022-12-11T11:20:13.307Z,3.88
2022-12-11T11:22:45.954Z,5.00
2022-12-11T11:25:21.026Z,5.03
2022-12-11T11:27:56.233Z,4.05
2022-12-11T11:30:27.246Z,3.53
2022-12-11T11:33:02.481Z,3.47
2022-12-11T11:35:31.920Z,2.92
2022-12-11T11:38:06.639Z,2.92
2022-12-11T11:40:39.117Z,4.32
2022-12-11T11:43:18.604Z,5.50
2022-12-11T11:45:56.669Z,4.03
2022-12-11T11:48:34.257Z,5.80
2022-12-11T11:51:14.023Z,3.47
2022-12-11T11:53:48.364Z,3.53
2022-12-11T11:56:23.180Z,3.05
2022-12-11T11:59:02.358Z,5.00
2022-12-11T12:01:31.313Z,3.55
2022-12-11T12:04:02.751Z,5.63
2022-12-11T12:06:50.480Z,2.97
2022-12-11T12:09:40.806Z,4.88
2022-12-11T12:12:22.965Z,6.53
2022-12-11T12:15:07.506Z,4.32
2022-12-11T12:17:51.980Z,3.53
2022-12-11T12:20:32.054Z,4.93
2022-12-11T12:23:17.042Z,4.88
2022-12-11T12:25:53.618Z,4.72
2022-12-11T12:28:31.784Z,3.85
2022-12-11T12:31:14.300Z,4.32
2022-12-11T12:33:53.478Z,3.85
2022-12-11T12:36:29.078Z,4.18
2022-12-11T12:39:03.112Z,4.43
2022-12-11T12:41:46.356Z,4.75
2022-12-11T12:44:17.440Z,4.10
2022-12-11T12:46:54.308Z,3.03
2022-12-11T12:49:36.647Z,3.80
2022-12-11T12:52:16.842Z,3.65
2022-12-11T12:55:09.011Z,5.60
2022-12-11T12:57:39.976Z,3.53
2022-12-11T13:00:13.475Z,3.30
2022-12-11T13:02:51.810Z,2.97
2022-12-11T13:05:23.186Z,5.43
2022-12-11T13:07:54.768Z,4.57
2022-12-11T13:10:31.997Z,3.58
2022-12-11T13:13:03.344Z,5.05
2022-12-11T13:15:40.779Z,3.80
2022-12-11T13:18:35.531Z,3.78
2022-12-11T13:21:05.643Z,4.75
2022-12-11T13:23:35.264Z,5.10
2022-12-11T13:26:05.235Z,3.75
2022-12-11T13:28:51.108Z,7.45
2022-12-11T13:31:37.087Z,5.30
2022-12-11T13:34:17.515Z,4.93
2022-12-11T13:36:50.783Z,3.67
2022-12-11T13:39:21.179Z,5.95
2022-12-11T13:41:53.813Z,6.78
2022-12-11T13:44:27.257Z,5.13
2022-12-11T13:47:00.326Z,5.43
2022-12-11T13:49:32.446Z,5.30
2022-12-11T13:52:02.041Z,5.57
2022-12-11T13:54:31.597Z,6.18
2022-12-11T13:57:03.330Z,3.28
2022-12-11T13:59:34.947Z,3.72
2022-12-11T14:02:15.608Z,4.78
2022-12-11T14:04:48.030Z,5.45
2022-12-11T14:07:25.207Z,5.93
2022-12-11T14:10:00.341Z,3.22
2022-12-11T14:12:36.704Z,4.63
2022-12-11T14:15:05.965Z,3.85
2022-12-11T14:17:37.485Z,5.07
2022-12-11T14:20:18.928Z,5.18
2022-12-11T14:22:47.526Z,7.25
2022-12-11T14:25:22.973Z,4.72
2022-12-11T14:27:53.027Z,6.45
2022-12-11T14:30:24.265Z,4.40
2022-12-11T14:32:55.626Z,6.65
2022-12-11T14:35:31.728Z,6.85
2022-12-11T14:38:05.289Z,4.07
2022-12-11T14:40:40.837Z,5.43
2022-12-11T14:43:14.326Z,6.68
2022-12-11T14:45:45.858Z,6.05
2022-12-11T14:48:19.404Z,5.95
2022-12-11T14:50:54.830Z,3.53
2022-12-11T14:53:26.598Z,5.70
2022-12-11T14:55:56.200Z,7.10
2022-12-11T14:58:27.760Z,7.22
2022-12-11T15:01:00.949Z,8.60
2022-12-11T15:03:34.370Z,6.35
2022-12-11T15:06:05.639Z,7.40
2022-12-11T15:08:37.111Z,5.45
2022-12-11T15:11:09.359Z,5.88
2022-12-11T15:13:40.216Z,4.75
2022-12-11T15:16:10.245Z,5.20
2022-12-11T15:18:42.833Z,6.53
2022-12-11T15:21:14.030Z,6.15
2022-12-11T15:23:52.994Z,9.50
2022-12-11T15:26:21.940Z,7.60
2022-12-11T15:29:01.180Z,7.53
2022-12-11T15:31:32.811Z,6.53
2022-12-11T15:34:01.078Z,4.47
2022-12-11T15:36:35.793Z,6.57
2022-12-11T15:39:05.695Z,6.85
2022-12-11T15:41:34.835Z,7.80
2022-12-11T15:44:05.014Z,5.60
2022-12-11T15:46:37.126Z,3.58
2022-12-11T15:49:13.974Z,8.13
2022-12-11T15:51:44.509Z,7.18
2022-12-11T15:54:13.662Z,7.63
2022-12-11T15:56:41.817Z,6.35
2022-12-11T15:59:11.721Z,7.78
2022-12-11T16:01:47.800Z,7.13
2022-12-11T16:04:15.891Z,5.40
2022-12-11T16:06:46.520Z,5.60
2022-12-11T16:09:16.248Z,5.72
2022-12-11T16:11:44.371Z,5.47
2022-12-11T16:14:14.459Z,6.50
2022-12-11T16:16:42.684Z,7.97
2022-12-11T16:19:10.901Z,5.25
2022-12-11T16:21:39.122Z,6.47
2022-12-11T16:24:08.763Z,6.53
2022-12-11T16:26:37.792Z,7.57
2022-12-11T16:29:07.093Z,6.53
2022-12-11T16:31:35.496Z,5.57
2022-12-11T16:34:03.575Z,6.43
2022-12-11T16:36:32.618Z,3.28
2022-12-11T16:39:00.768Z,7.60
2022-12-11T16:41:30.369Z,6.57
2022-12-11T16:43:58.969Z,4.38
2022-12-11T16:46:27.120Z,5.28
2022-12-11T16:48:55.302Z,5.40
2022-12-11T16:51:23.573Z,5.07
2022-12-11T16:53:51.959Z,5.70
2022-12-11T16:56:21.162Z,3.85
2022-12-11T16:58:51.721Z,5.35
2022-12-11T17:01:20.216Z,10.32
2022-12-11T17:03:50.581Z,7.40
2022-12-11T17:06:19.265Z,6.90
2022-12-11T17:08:48.787Z,4.63
2022-12-11T17:11:26.972Z,3.83
2022-12-11T17:13:58.411Z,5.75
2022-12-11T17:16:56.705Z,7.70
2022-12-11T17:19:25.242Z,6.95
2022-12-11T17:21:54.272Z,5.00
2022-12-11T17:24:22.446Z,4.55
2022-12-11T17:26:50.708Z,7.60
2022-12-11T17:29:21.309Z,5.88
2022-12-11T17:31:51.591Z,5.07
2022-12-11T17:34:19.761Z,6.20
2022-12-11T17:36:48.439Z,7.55
2022-12-11T17:39:16.736Z,7.20
2022-12-11T17:41:44.808Z,6.63
2022-12-11T17:44:14.294Z,6.60
2022-12-11T17:46:43.824Z,6.28
2022-12-11T17:49:12.005Z,9.38
2022-12-11T17:51:40.046Z,9.60
2022-12-11T17:54:08.247Z,4.68
2022-12-11T17:56:37.591Z,4.82
2022-12-11T17:59:06.033Z,8.30
2022-12-11T18:01:34.737Z,7.45
2022-12-11T18:04:05.055Z,7.63
2022-12-11T18:06:33.266Z,6.85
2022-12-11T18:09:01.426Z,10.98
2022-12-11T18:11:29.859Z,8.10
2022-12-11T18:13:59.021Z,3.20
2022-12-11T18:16:31.824Z,6.15
2022-12-11T18:19:00.190Z,10.73
2022-12-11T18:21:33.521Z,7.32
2022-12-11T18:24:03.778Z,7.65
2022-12-11T18:26:31.844Z,8.18
2022-12-11T18:29:00.322Z,7.55
2022-12-11T18:31:28.507Z,6.93
2022-12-11T18:33:56.665Z,8.52
2022-12-11T18:36:25.096Z,8.27
2022-12-11T18:38:54.818Z,10.57
2022-12-11T18:41:22.934Z,7.40
2022-12-11T18:43:51.236Z,10.50
2022-12-11T18:46:21.129Z,8.48
2022-12-11T18:48:49.887Z,9.80
2022-12-11T18:51:22.647Z,9.48
2022-12-11T18:53:51.210Z,7.38
2022-12-11T18:56:22.488Z,9.23
2022-12-11T18:58:52.047Z,6.05
2022-12-11T19:01:25.032Z,6.30
2022-12-11T19:04:02.007Z,12.18
2022-12-11T19:06:33.345Z,11.30
2022-12-11T19:09:01.602Z,7.22
2022-12-11T19:11:32.832Z,10.88
2022-12-11T19:14:00.988Z,7.45
2022-12-11T19:16:33.813Z,11.00
2022-12-11T19:19:04.164Z,12.60
2022-12-11T19:21:32.452Z,12.20
2022-12-11T19:24:00.978Z,11.20
2022-12-11T19:26:30.873Z,9.95
2022-12-11T19:29:00.307Z,9.25
2022-12-11T19:31:32.560Z,8.15
2022-12-11T19:34:01.828Z,8.77
2022-12-11T19:36:33.720Z,5.10
2022-12-11T19:39:05.042Z,5.35
2022-12-11T19:41:36.791Z,6.97
2022-12-11T19:44:05.191Z,10.65
2022-12-11T19:46:33.758Z,8.80
2022-12-11T19:49:04.596Z,9.38
2022-12-11T19:51:36.539Z,9.18
2022-12-11T19:54:05.742Z,4.55
2022-12-11T19:56:34.876Z,7.55
2022-12-11T19:59:05.938Z,6.05
2022-12-11T20:01:36.686Z,7.22
2022-12-11T20:04:12.054Z,6.47
2022-12-11T20:06:42.945Z,4.45
2022-12-11T20:09:12.251Z,6.57
2022-12-11T20:11:41.885Z,6.32
2022-12-11T20:14:18.665Z,6.22
2022-12-11T20:17:10.164Z,8.05
2022-12-11T20:19:34.998Z,10.93
2022-12-11T20:22:03.109Z,5.90
2022-12-11T20:24:31.057Z,7.63
2022-12-11T20:27:01.813Z,9.07
2022-12-11T20:29:31.317Z,6.15
2022-12-11T20:32:00.599Z,7.38
2022-12-11T20:34:29.106Z,5.90
2022-12-11T20:36:57.189Z,5.43
2022-12-11T20:39:25.292Z,5.43
2022-12-11T20:41:53.440Z,8.77
2022-12-11T20:44:21.842Z,6.07
2022-12-11T20:46:51.735Z,6.82
2022-12-11T20:49:19.973Z,8.95
2022-12-11T20:51:48.016Z,6.70
2022-12-11T20:54:16.413Z,8.50
2022-12-11T20:56:44.909Z,8.02
2022-12-11T20:59:13.431Z,5.88
2022-12-11T21:01:41.527Z,8.52
2022-12-11T21:04:11.890Z,6.63
2022-12-11T21:06:42.050Z,6.50
2022-12-11T21:09:13.164Z,6.18
2022-12-11T21:11:41.518Z,7.47
2022-12-11T21:14:09.745Z,8.45
2022-12-11T21:16:38.384Z,9.57
2022-12-11T21:19:10.116Z,4.72
2022-12-11T21:21:42.022Z,6.22
2022-12-11T21:24:15.341Z,7.80
2022-12-11T21:26:45.196Z,4.45
2022-12-11T21:29:13.415Z,7.22
2022-12-11T21:31:42.645Z,6.70
2022-12-11T21:34:10.952Z,7.70
2022-12-11T21:36:39.152Z,8.20
2022-12-11T21:39:08.626Z,5.82
2022-12-11T21:41:38.647Z,6.75
2022-12-11T21:46:55.017Z,4.88
2022-12-11T21:49:27.071Z,6.03
2022-12-11T21:51:55.160Z,8.60
2022-12-11T21:54:24.604Z,4.95
2022-12-11T21:56:54.183Z,4.53
2022-12-11T21:59:22.192Z,4.93
2022-12-11T22:01:50.262Z,3.33
2022-12-11T22:04:20.157Z,5.60
2022-12-11T22:06:48.356Z,4.38
2022-12-11T22:09:17.865Z,5.35
2022-12-11T22:11:47.979Z,5.65
2022-12-11T22:14:18.187Z,6.35
2022-12-11T22:16:46.838Z,3.83
2022-12-11T22:19:14.974Z,2.25
2022-12-11T22:21:43.329Z,4.40
2022-12-11T22:24:11.359Z,4.90
2022-12-11T22:26:40.045Z,5.07
2022-12-11T22:29:09.526Z,5.28
2022-12-11T22:31:37.538Z,4.65
2022-12-11T22:34:05.641Z,5.55
2022-12-11T22:36:33.625Z,4.57
2022-12-11T22:39:02.289Z,5.18
2022-12-11T22:41:32.319Z,5.07
2022-12-11T22:44:00.938Z,3.97
2022-12-11T22:46:31.413Z,5.78
2022-12-11T22:48:59.952Z,5.13
2022-12-11T22:51:27.890Z,3.10
2022-12-11T22:53:56.073Z,4.07
2022-12-11T22:56:24.217Z,4.43
2022-12-11T22:58:52.463Z,5.50
2022-12-11T23:01:22.915Z,7.85
2022-12-11T23:03:52.822Z,4.90
2022-12-11T23:06:23.300Z,4.10
2022-12-11T23:08:51.440Z,3.80
2022-12-11T23:11:24.143Z,6.05
2022-12-11T23:13:52.380Z,5.32
2022-12-11T23:16:20.496Z,4.22
2022-12-11T23:18:48.511Z,4.53
2022-12-11T23:21:17.952Z,5.60
2022-12-11T23:23:46.041Z,7.43
2022-12-11T23:26:14.720Z,3.42
2022-12-11T23:28:43.547Z,4.07
2022-12-11T23:31:11.892Z,6.07
2022-12-11T23:33:39.991Z,4.25
2022-12-11T23:36:08.887Z,6.05
2022-12-11T23:38:38.889Z,4.50
2022-12-11T23:41:07.704Z,5.22
2022-12-11T23:43:37.010Z,4.43
2022-12-11T23:46:06.044Z,3.28
2022-12-11T23:48:34.248Z,5.22
2022-12-11T23:51:03.367Z,6.82
2022-12-11T23:53:31.397Z,4.00
2022-12-11T23:56:04.550Z,4.57
2022-12-11T23:58:32.669Z,4.43
